Time;durP1;ratioP1;P1;durP2;ratioP2;P2;SDS_P1;SDS_P2;PMS_P1;PMS_P2;Temp;Humidity;BMP_temperature;BMP_pressure;BME280_temperature;BME280_humidity;BME280_pressure;Samples;Min_cycle;Max_cycle;Signal;HPM_P1;HPM_P2
2023/08/26 00:00:28;;;;;;;14.00;8.40;;;;;;;22.30;59.59;94799.72;5112400;28;20035;-71
2023/08/26 00:02:54;;;;;;;9.02;7.93;;;;;;;22.27;59.54;94792.19;5117430;27;20473;-71
2023/08/26 00:05:19;;;;;;;9.55;8.38;;;;;;;22.21;59.87;94786.91;5111987;27;20023;-72
2023/08/26 00:07:45;;;;;;;10.07;8.13;;;;;;;22.26;59.76;94795.88;5128958;27;20023;-71
2023/08/26 00:10:10;;;;;;;9.45;8.13;;;;;;;22.23;59.86;94804.22;5130958;27;20070;-71
2023/08/26 00:12:36;;;;;;;8.70;7.50;;;;;;;22.32;59.85;94801.38;5130023;27;20038;-71
2023/08/26 00:15:01;;;;;;;11.05;8.60;;;;;;;22.06;59.69;94773.78;5130347;27;20537;-72
2023/08/26 00:17:26;;;;;;;8.82;7.85;;;;;;;22.32;59.84;94811.97;5119430;28;20493;-72
2023/08/26 00:19:52;;;;;;;8.77;7.82;;;;;;;22.08;60.63;94811.44;5111833;28;20023;-72
2023/08/26 00:22:17;;;;;;;8.65;7.78;;;;;;;22.01;60.39;94779.69;5125316;28;20028;-72
2023/08/26 00:24:43;;;;;;;9.45;7.97;;;;;;;22.10;60.39;94804.13;5109886;28;20084;-72
2023/08/26 00:27:09;;;;;;;9.18;8.10;;;;;;;22.06;60.83;94806.38;5111412;28;20546;-72
2023/08/26 00:29:34;;;;;;;9.60;8.25;;;;;;;22.02;60.99;94802.47;5116246;28;20088;-72
2023/08/26 00:32:00;;;;;;;9.02;8.13;;;;;;;21.91;61.42;94794.28;5130547;28;20031;-72
2023/08/26 00:34:25;;;;;;;11.75;8.50;;;;;;;22.08;61.22;94806.97;5129832;28;20295;-72
2023/08/26 00:36:51;;;;;;;9.48;8.43;;;;;;;21.97;61.38;94791.66;5112383;28;20039;-72
2023/08/26 00:39:16;;;;;;;9.23;8.25;;;;;;;22.05;61.28;94780.09;5108701;28;20039;-72
2023/08/26 00:41:41;;;;;;;10.75;9.23;;;;;;;21.82;61.32;94769.84;5130417;28;20306;-72
2023/08/26 00:44:07;;;;;;;10.93;8.57;;;;;;;21.81;61.81;94778.78;5129809;28;20417;-72
2023/08/26 00:46:32;;;;;;;9.18;8.23;;;;;;;21.93;61.93;94793.09;5130322;28;20087;-72
2023/08/26 00:48:59;;;;;;;11.52;8.90;;;;;;;21.91;61.73;94783.72;5125705;27;20031;-72
2023/08/26 00:51:24;;;;;;;11.20;8.48;;;;;;;21.80;62.22;94772.69;5109656;28;20035;-72
2023/08/26 00:53:50;;;;;;;9.13;8.23;;;;;;;21.93;61.89;94773.75;5109621;28;20513;-72
2023/08/26 00:56:15;;;;;;;11.25;8.65;;;;;;;21.86;62.20;94782.47;5093214;28;20493;-72
2023/08/26 00:58:41;;;;;;;9.82;8.82;;;;;;;21.79;62.72;94791.41;5109383;28;20043;-72
2023/08/26 01:01:06;;;;;;;11.15;8.90;;;;;;;21.78;62.83;94789.75;5109534;28;20051;-72
2023/08/26 01:03:33;;;;;;;9.73;8.82;;;;;;;21.78;62.43;94790.56;5110666;28;20039;-72
2023/08/26 01:05:58;;;;;;;12.05;8.55;;;;;;;21.78;62.54;94784.47;5092439;28;20032;-72
2023/08/26 01:08:23;;;;;;;12.45;8.77;;;;;;;21.68;63.07;94789.31;5110699;28;20032;-72
2023/08/26 01:10:56;;;;;;;9.93;8.73;;;;;;;21.59;63.50;94786.00;5110572;28;20107;-72
2023/08/26 01:13:36;;;;;;;10.02;9.02;;;;;;;21.76;62.59;94786.50;5112175;28;20028;-72
2023/08/26 01:16:01;;;;;;;10.35;8.77;;;;;;;21.70;62.58;94787.28;5127115;28;20035;-72
2023/08/26 01:18:27;;;;;;;10.95;8.50;;;;;;;21.74;62.64;94778.75;5110706;28;20035;-72
2023/08/26 01:20:52;;;;;;;10.00;9.00;;;;;;;21.40;62.97;94740.78;5112735;28;20038;-72
2023/08/26 01:23:20;;;;;;;10.75;8.88;;;;;;;21.66;62.94;94775.47;5111900;27;20034;-72
2023/08/26 01:25:46;;;;;;;12.98;8.80;;;;;;;21.57;63.19;94777.47;5116222;27;20062;-72
2023/08/26 01:28:13;;;;;;;10.63;9.13;;;;;;;21.59;63.11;94770.97;5127477;27;20051;-72
2023/08/26 01:30:38;;;;;;;9.38;8.48;;;;;;;21.71;63.37;94773.06;5112926;28;20043;-72
2023/08/26 01:33:22;;;;;;;10.57;8.90;;;;;;;21.68;63.12;94774.28;5120876;27;20404;-72
2023/08/26 01:35:47;;;;;;;10.30;9.02;;;;;;;21.63;63.32;94776.69;5116690;27;20031;-71
2023/08/26 01:38:15;;;;;;;9.57;8.57;;;;;;;21.66;63.40;94780.75;5114684;27;20408;-72
2023/08/26 01:40:40;;;;;;;10.23;8.93;;;;;;;21.61;63.20;94783.97;5133262;27;20118;-72
2023/08/26 01:43:06;;;;;;;10.27;8.98;;;;;;;21.63;63.10;94769.56;5133066;27;20413;-72
2023/08/26 01:45:31;;;;;;;9.93;8.93;;;;;;;21.62;63.17;94775.88;5116403;27;20495;-72
2023/08/26 01:47:57;;;;;;;10.50;9.35;;;;;;;21.58;63.44;94773.81;5133013;27;20034;-72
2023/08/26 01:50:22;;;;;;;11.90;8.65;;;;;;;21.55;63.52;94779.47;5133036;27;20035;-72
2023/08/26 01:52:47;;;;;;;10.13;8.68;;;;;;;21.52;63.26;94771.94;5115277;27;20027;-72
2023/08/26 01:55:13;;;;;;;10.23;9.02;;;;;;;21.49;63.65;94772.34;5115817;27;20038;-72
2023/08/26 01:57:38;;;;;;;11.23;8.82;;;;;;;21.41;63.99;94766.19;5096565;27;20059;-72
2023/08/26 02:00:05;;;;;;;10.43;8.80;;;;;;;21.53;63.44;94777.03;5111924;28;20050;-72
2023/08/26 02:02:30;;;;;;;9.77;8.88;;;;;;;21.45;63.65;94776.38;5111928;28;20040;-72
2023/08/26 02:04:56;;;;;;;10.57;8.98;;;;;;;21.36;63.83;94773.84;5129472;27;20561;-72
2023/08/26 02:07:21;;;;;;;9.88;8.88;;;;;;;21.28;64.06;94763.44;5113616;28;20515;-71
2023/08/26 02:09:46;;;;;;;12.55;9.20;;;;;;;21.29;64.09;94780.94;5128268;27;20047;-72
2023/08/26 02:12:12;;;;;;;9.80;8.80;;;;;;;21.20;64.74;94782.91;5112234;28;20405;-72
2023/08/26 02:14:37;;;;;;;10.38;9.35;;;;;;;21.22;64.63;94785.34;5113092;27;20038;-72
2023/08/26 02:17:03;;;;;;;10.50;9.40;;;;;;;21.24;64.51;94785.97;5111267;28;20026;-72
2023/08/26 02:19:28;;;;;;;9.40;8.40;;;;;;;21.10;64.12;94752.56;5125195;27;20047;-72
2023/08/26 02:21:54;;;;;;;10.45;9.13;;;;;;;21.18;64.67;94770.91;5112195;28;20031;-72
2023/08/26 02:24:19;;;;;;;10.73;9.60;;;;;;;21.11;64.50;94768.22;5092779;28;20035;-72
2023/08/26 02:26:45;;;;;;;10.43;9.40;;;;;;;20.73;64.95;94718.41;5112860;28;20027;-73
2023/08/26 02:29:10;;;;;;;10.27;9.20;;;;;;;20.97;65.31;94759.38;5124320;27;20449;-72
2023/08/26 02:31:36;;;;;;;11.73;9.48;;;;;;;20.90;65.73;94753.25;5113806;27;20019;-72
2023/08/26 02:34:01;;;;;;;12.07;9.90;;;;;;;20.91;65.93;94754.88;5109717;28;20020;-72
2023/08/26 02:36:26;;;;;;;11.70;9.90;;;;;;;20.83;66.19;94752.38;5109268;27;20099;-73
2023/08/26 02:38:52;;;;;;;10.98;9.85;;;;;;;20.83;66.22;94751.56;5132119;27;20043;-73
2023/08/26 02:41:17;;;;;;;11.63;9.77;;;;;;;20.78;66.36;94749.47;5113514;27;20031;-72
2023/08/26 02:43:42;;;;;;;10.73;9.63;;;;;;;20.79;66.44;94752.97;5131460;27;20038;-73
2023/08/26 02:46:08;;;;;;;11.95;10.32;;;;;;;20.61;67.11;94756.06;5132019;27;20027;-72
2023/08/26 02:48:33;;;;;;;10.98;9.48;;;;;;;20.67;67.16;94760.56;5133097;27;20455;-72
2023/08/26 02:51:00;;;;;;;10.68;9.50;;;;;;;20.61;67.00;94761.34;5124036;27;20027;-72
2023/08/26 02:53:25;;;;;;;12.23;10.02;;;;;;;20.36;68.02;94753.78;5111219;28;20028;-73
2023/08/26 02:55:51;;;;;;;10.43;9.32;;;;;;;20.45;67.54;94757.94;5095266;28;20072;-72
2023/08/26 02:58:18;;;;;;;10.73;9.63;;;;;;;20.43;66.98;94767.84;5107145;28;20039;-72
2023/08/26 03:00:44;;;;;;;10.88;9.57;;;;;;;20.57;67.07;94768.00;5077341;28;20035;-72
2023/08/26 03:03:09;;;;;;;10.88;9.52;;;;;;;20.58;66.64;94767.00;5112095;28;20547;-72
2023/08/26 03:05:35;;;;;;;10.50;9.45;;;;;;;20.40;66.62;94728.66;5111055;28;20035;-72
2023/08/26 03:08:00;;;;;;;11.02;9.85;;;;;;;20.61;66.28;94756.06;5112590;28;20035;-72
2023/08/26 03:10:25;;;;;;;13.57;8.77;;;;;;;20.75;65.69;94758.63;5114774;27;20116;-72
2023/08/26 03:12:51;;;;;;;9.90;8.90;;;;;;;20.72;65.50;94756.34;5131562;27;20030;-72
2023/08/26 03:15:16;;;;;;;11.25;9.98;;;;;;;20.60;66.33;94762.34;5131447;27;20080;-72
2023/08/26 03:17:41;;;;;;;10.13;9.13;;;;;;;20.55;66.26;94767.38;5131479;27;20508;-72
2023/08/26 03:20:08;;;;;;;10.80;9.73;;;;;;;20.59;66.15;94763.34;5115641;27;20040;-72
2023/08/26 03:22:34;;;;;;;11.50;9.05;;;;;;;20.62;66.17;94770.91;5129652;27;20030;-72
2023/08/26 03:24:59;;;;;;;10.40;9.30;;;;;;;20.52;66.22;94771.16;5113876;27;20031;-72
2023/08/26 03:27:25;;;;;;;10.48;9.48;;;;;;;20.30;66.71;94742.16;5132371;27;20531;-72
2023/08/26 03:29:50;;;;;;;10.63;9.57;;;;;;;20.45;66.30;94767.69;5132452;27;20031;-72
2023/08/26 03:32:15;;;;;;;11.90;9.48;;;;;;;20.48;66.00;94783.94;5121804;27;20027;-72
2023/08/26 03:34:41;;;;;;;12.15;9.50;;;;;;;20.46;66.48;94772.75;5132312;27;20027;-72
2023/08/26 03:37:06;;;;;;;12.85;9.27;;;;;;;20.60;65.65;94784.28;5113900;27;20412;-72
2023/08/26 03:39:32;;;;;;;9.85;8.80;;;;;;;20.58;65.85;94790.75;5130356;27;20031;-72
2023/08/26 03:41:57;;;;;;;9.77;8.77;;;;;;;20.47;65.68;94784.09;5132257;27;20035;-72
2023/08/26 03:44:23;;;;;;;9.82;8.80;;;;;;;20.69;65.14;94787.59;5113810;27;20473;-72
2023/08/26 03:46:48;;;;;;;11.27;9.25;;;;;;;20.51;65.69;94793.28;5130190;27;20064;-71
2023/08/26 03:49:14;;;;;;;9.70;8.80;;;;;;;20.53;65.60;94796.56;5113707;27;20378;-71
2023/08/26 03:51:39;;;;;;;10.20;9.20;;;;;;;20.56;65.42;94811.22;5128223;27;20031;-71
2023/08/26 03:54:05;;;;;;;10.45;9.43;;;;;;;20.39;65.81;94797.41;5111388;28;20047;-72
2023/08/26 03:56:30;;;;;;;10.35;9.25;;;;;;;20.38;66.12;94801.88;5098329;28;20480;-72
2023/08/26 03:58:57;;;;;;;10.35;9.30;;;;;;;20.48;65.74;94805.03;5093280;28;20394;-72
2023/08/26 04:01:22;;;;;;;11.65;9.55;;;;;;;20.49;65.50;94813.78;5117985;28;20117;-72
2023/08/26 04:03:51;;;;;;;12.00;9.05;;;;;;;20.34;66.26;94805.06;5130652;27;20524;-72
2023/08/26 04:06:17;;;;;;;10.35;9.25;;;;;;;20.36;65.58;94795.97;5096608;27;20038;-72
2023/08/26 04:08:44;;;;;;;10.27;9.27;;;;;;;20.42;65.95;94821.63;5130533;27;20042;-73
2023/08/26 04:11:09;;;;;;;9.95;8.75;;;;;;;20.42;65.89;94804.97;5096035;28;20066;-72
2023/08/26 04:13:34;;;;;;;10.77;9.02;;;;;;;20.33;65.89;94811.38;5107992;28;20495;-72
2023/08/26 04:16:03;;;;;;;10.43;9.32;;;;;;;20.29;66.04;94817.00;5092962;28;20097;-72
2023/08/26 04:18:29;;;;;;;13.23;9.70;;;;;;;20.31;66.14;94812.38;5093323;28;20447;-72
2023/08/26 04:20:54;;;;;;;10.32;9.27;;;;;;;20.17;66.47;94807.13;5091639;28;20477;-72
2023/08/26 04:23:20;;;;;;;12.30;9.27;;;;;;;20.30;66.41;94813.38;5090825;28;20203;-72
2023/08/26 04:25:45;;;;;;;10.05;9.13;;;;;;;20.29;66.40;94817.00;5107596;28;20036;-72
2023/08/26 04:28:16;;;;;;;11.35;9.30;;;;;;;20.28;66.41;94818.03;5092407;28;20300;-72
2023/08/26 04:30:42;;;;;;;10.30;9.20;;;;;;;20.27;66.28;94818.22;5118319;28;20038;-73
2023/08/26 04:33:07;;;;;;;9.65;8.63;;;;;;;20.29;66.16;94808.28;5080964;28;20035;-73
2023/08/26 04:35:33;;;;;;;10.25;9.15;;;;;;;20.11;66.76;94797.34;5118383;28;20039;-74
2023/08/26 04:37:59;;;;;;;9.68;8.68;;;;;;;20.31;66.23;94809.75;5123893;28;20023;-74
2023/08/26 04:40:25;;;;;;;10.23;8.93;;;;;;;20.28;65.89;94809.28;5115505;28;20123;-74
2023/08/26 04:42:51;;;;;;;10.20;9.20;;;;;;;20.31;65.94;94815.00;5111815;28;20027;-74
2023/08/26 04:45:17;;;;;;;10.30;9.02;;;;;;;20.32;65.51;94786.81;5104023;28;20327;-74
2023/08/26 04:47:42;;;;;;;9.80;8.70;;;;;;;20.79;64.33;94805.75;5080677;28;20038;-74
2023/08/26 04:50:08;;;;;;;9.85;8.85;;;;;;;20.82;63.87;94811.47;5114430;27;20098;-74
2023/08/26 04:52:34;;;;;;;10.00;9.00;;;;;;;21.58;61.99;94816.91;5107714;28;20096;-71
2023/08/26 04:54:59;;;;;;;10.38;8.50;;;;;;;22.49;59.22;94810.56;5127694;28;20032;-75
2023/08/26 04:57:25;;;;;;;10.88;8.50;;;;;;;23.16;57.17;94803.53;5128379;27;20031;-76
2023/08/26 04:59:50;;;;;;;9.80;8.48;;;;;;;23.89;54.75;94814.00;5133375;27;20393;-74
2023/08/26 05:02:15;;;;;;;9.45;8.45;;;;;;;24.64;53.03;94813.47;5133883;27;20046;-74
2023/08/26 05:04:41;;;;;;;8.63;7.75;;;;;;;25.07;51.52;94815.38;5133799;27;20019;-73
2023/08/26 05:07:06;;;;;;;8.20;7.40;;;;;;;25.22;50.08;94802.63;5133417;27;20378;-73
2023/08/26 05:09:32;;;;;;;8.27;7.47;;;;;;;25.61;49.62;94808.59;5133228;27;20027;-73
2023/08/26 05:29:01;;;;;;;11.27;8.15;;;;;;;25.05;51.16;94820.13;5147796;27;20377;-74
2023/08/26 05:31:27;;;;;;;8.93;8.13;;;;;;;25.22;51.08;94807.94;5147228;27;20046;-75
2023/08/26 05:33:52;;;;;;;10.40;8.20;;;;;;;24.93;51.12;94802.22;5149330;27;20023;-74
2023/08/26 05:36:18;;;;;;;9.07;8.10;;;;;;;24.49;52.25;94808.47;5146908;27;20023;-75
2023/08/26 05:38:43;;;;;;;9.20;8.30;;;;;;;24.68;51.77;94815.50;5140498;27;20066;-73
2023/08/26 05:41:08;;;;;;;8.98;8.07;;;;;;;24.63;52.14;94822.47;5160611;27;20071;-73
2023/08/26 05:43:34;;;;;;;9.80;8.25;;;;;;;24.79;51.85;94813.16;5151967;27;20031;-73
2023/08/26 05:45:59;;;;;;;8.38;7.57;;;;;;;25.07;51.52;94816.19;5129733;27;20496;-73
2023/08/26 05:48:25;;;;;;;9.68;8.65;;;;;;;25.21;51.20;94818.78;5146391;27;20019;-70
2023/08/26 05:50:50;;;;;;;11.13;8.93;;;;;;;25.30;51.42;94818.31;5146956;27;20027;-71
2023/08/26 05:53:15;;;;;;;10.40;9.07;;;;;;;25.61;50.71;94817.38;5145686;27;20023;-71
2023/08/26 05:55:41;;;;;;;10.18;8.93;;;;;;;25.19;51.50;94816.34;5147607;27;20027;-72
2023/08/26 05:58:07;;;;;;;10.68;9.00;;;;;;;25.55;51.00;94817.47;5144776;27;20445;-69
2023/08/26 06:00:32;;;;;;;11.40;9.20;;;;;;;25.54;51.03;94808.66;5146327;27;20465;-70
2023/08/26 06:02:57;;;;;;;13.07;9.63;;;;;;;25.63;50.36;94810.00;5130820;27;20096;-71
2023/08/26 06:05:23;;;;;;;12.80;9.70;;;;;;;25.78;50.54;94812.31;5141146;27;20179;-70
2023/08/26 06:07:50;;;;;;;12.73;9.45;;;;;;;25.44;51.52;94810.22;5133291;27;20034;-70
2023/08/26 06:10:16;;;;;;;10.10;9.10;;;;;;;25.53;50.99;94804.38;5145319;27;20065;-69
2023/08/26 06:12:41;;;;;;;11.15;9.55;;;;;;;25.37;51.28;94808.41;5141349;27;20110;-69
2023/08/26 06:15:07;;;;;;;14.25;9.45;;;;;;;25.40;51.61;94809.81;5144720;27;20027;-69
2023/08/26 06:17:34;;;;;;;9.77;8.88;;;;;;;25.33;51.40;94806.44;5126178;27;20035;-70
2023/08/26 06:19:59;;;;;;;11.98;9.30;;;;;;;25.57;51.38;94802.88;5110350;27;20110;-68
2023/08/26 06:22:25;;;;;;;12.57;9.30;;;;;;;25.63;50.60;94794.06;5127520;27;20511;-72
2023/08/26 06:24:50;;;;;;;11.18;9.43;;;;;;;25.67;50.40;94807.72;5132870;27;20030;-68
2023/08/26 06:27:16;;;;;;;9.95;8.95;;;;;;;25.99;49.66;94804.94;5125513;27;20050;-69
2023/08/26 06:29:45;;;;;;;13.48;9.57;;;;;;;25.98;49.88;94803.31;5123343;27;20486;-70
2023/08/26 06:32:10;;;;;;;12.63;9.37;;;;;;;26.33;48.59;94813.31;5112795;28;20040;-70
2023/08/26 06:34:36;;;;;;;11.85;8.38;;;;;;;26.21;48.89;94806.09;5133491;27;20023;-70
2023/08/26 06:37:02;;;;;;;12.98;9.38;;;;;;;26.37;48.80;94815.31;5116050;27;20488;-71
2023/08/26 06:39:27;;;;;;;13.25;9.35;;;;;;;26.09;49.07;94807.88;5132976;27;20026;-71
2023/08/26 06:41:53;;;;;;;12.73;9.00;;;;;;;26.55;47.69;94814.50;5134468;27;20028;-71
2023/08/26 06:44:18;;;;;;;10.57;8.75;;;;;;;26.39;47.91;94813.25;5112300;28;20053;-70
2023/08/26 06:46:44;;;;;;;12.30;8.70;;;;;;;26.63;47.88;94819.47;5112543;28;20542;-70
2023/08/26 06:49:10;;;;;;;13.27;9.48;;;;;;;26.55;48.62;94824.31;5129945;27;20030;-70
2023/08/26 06:51:35;;;;;;;13.20;9.77;;;;;;;26.57;48.89;94819.59;5097220;27;20035;-70
2023/08/26 06:54:00;;;;;;;14.65;9.55;;;;;;;26.84;47.95;94823.50;5130331;27;20480;-70
2023/08/26 06:56:29;;;;;;;15.48;9.80;;;;;;;26.55;47.60;94801.19;5154491;27;20021;-70
2023/08/26 06:58:54;;;;;;;13.75;9.32;;;;;;;26.77;48.09;94832.63;5154518;27;20507;-71
2023/08/26 07:01:19;;;;;;;11.13;9.45;;;;;;;26.80;47.82;94826.84;5153694;27;20023;-70
2023/08/26 07:03:45;;;;;;;11.30;9.05;;;;;;;26.86;47.38;94818.75;5153545;27;20026;-70
2023/08/26 07:06:11;;;;;;;11.88;8.85;;;;;;;27.09;46.90;94828.66;5153558;27;20027;-71
2023/08/26 07:08:36;;;;;;;13.77;8.90;;;;;;;27.09;47.69;94836.66;5153379;27;20050;-70
2023/08/26 07:11:02;;;;;;;11.07;8.80;;;;;;;27.00;47.35;94819.38;5154767;27;20015;-70
2023/08/26 07:13:27;;;;;;;10.25;9.02;;;;;;;27.32;46.90;94827.09;5153585;27;20035;-70
2023/08/26 07:15:53;;;;;;;14.52;9.05;;;;;;;27.27;46.53;94830.44;5154714;27;20079;-70
2023/08/26 07:18:18;;;;;;;11.55;8.55;;;;;;;27.46;46.26;94815.13;5153198;27;20090;-70
2023/08/26 07:20:44;;;;;;;9.50;8.10;;;;;;;27.47;45.68;94822.13;5153365;27;20019;-70
2023/08/26 07:23:09;;;;;;;14.30;8.40;;;;;;;27.68;45.53;94818.03;5153440;27;20498;-70
2023/08/26 07:25:35;;;;;;;13.38;7.80;;;;;;;27.77;44.15;94808.63;5118815;27;20019;-70
2023/08/26 07:28:00;;;;;;;11.32;7.63;;;;;;;27.92;43.66;94813.53;5153084;27;20058;-70
2023/08/26 07:30:26;;;;;;;8.95;7.35;;;;;;;27.93;43.72;94814.31;5154335;27;20471;-70
2023/08/26 07:32:53;;;;;;;10.77;7.55;;;;;;;28.09;42.56;94818.94;5152997;27;20030;-70
2023/08/26 07:35:18;;;;;;;9.13;7.35;;;;;;;28.18;42.85;94811.38;5153067;27;20033;-70
2023/08/26 07:37:44;;;;;;;9.38;7.90;;;;;;;28.25;42.85;94817.34;5135562;27;20034;-70
2023/08/26 07:40:12;;;;;;;13.90;7.93;;;;;;;28.07;43.16;94813.81;5151892;27;20425;-70
2023/08/26 07:42:38;;;;;;;10.25;7.18;;;;;;;28.20;42.81;94811.94;5135716;27;20035;-72
2023/08/26 07:45:04;;;;;;;7.95;7.13;;;;;;;28.36;41.70;94815.69;5143369;27;20080;-70
2023/08/26 07:47:30;;;;;;;8.05;7.22;;;;;;;28.60;41.67;94814.59;5120401;27;20181;-71
2023/08/26 07:49:55;;;;;;;8.88;7.47;;;;;;;28.41;41.84;94808.59;5118955;27;20463;-71
2023/08/26 07:52:20;;;;;;;8.98;6.93;;;;;;;28.64;41.71;94799.72;5110006;27;20023;-71
2023/08/26 07:54:46;;;;;;;12.25;7.07;;;;;;;28.76;41.56;94810.34;5095148;27;20063;-72
2023/08/26 07:57:11;;;;;;;8.70;7.65;;;;;;;28.68;41.41;94808.06;5109894;27;20069;-72
2023/08/26 07:59:37;;;;;;;8.75;7.85;;;;;;;28.54;41.73;94802.19;5127494;27;20465;-72
2023/08/26 08:02:02;;;;;;;8.77;7.50;;;;;;;28.84;41.66;94799.25;5116429;27;20394;-73
2023/08/26 08:04:28;;;;;;;9.68;6.80;;;;;;;29.17;41.10;94787.81;5107901;27;20038;-74
2023/08/26 08:06:53;;;;;;;9.18;7.68;;;;;;;29.53;39.24;94792.88;5132760;27;20047;-71
2023/08/26 08:09:18;;;;;;;9.00;7.53;;;;;;;29.40;39.64;94776.13;5130780;27;20488;-74
2023/08/26 08:11:44;;;;;;;10.45;7.38;;;;;;;29.61;39.21;94781.75;5096000;27;20079;-71
2023/08/26 08:14:09;;;;;;;12.00;7.32;;;;;;;29.60;39.58;94777.47;5111057;27;20019;-71
2023/08/26 08:16:35;;;;;;;12.30;7.47;;;;;;;29.69;39.89;94786.72;5116728;27;20032;-70
2023/08/26 08:19:00;;;;;;;9.73;7.43;;;;;;;29.82;39.25;94778.31;5131390;27;20023;-70
2023/08/26 08:21:25;;;;;;;10.40;6.57;;;;;;;30.08;39.01;94773.28;5115846;27;20454;-70
2023/08/26 08:23:51;;;;;;;7.75;6.95;;;;;;;29.86;39.74;94775.94;5110831;28;20023;-71
2023/08/26 08:26:16;;;;;;;9.45;6.72;;;;;;;29.81;38.68;94771.38;5120793;27;20024;-72
2023/08/26 08:28:42;;;;;;;7.80;7.00;;;;;;;30.08;38.35;94767.91;5118375;27;20500;-72
2023/08/26 08:31:08;;;;;;;8.45;6.43;;;;;;;30.52;37.28;94772.47;5128848;27;20028;-72
2023/08/26 08:33:34;;;;;;;8.18;6.63;;;;;;;30.50;37.10;94770.81;5096781;27;20031;-72
2023/08/26 08:36:00;;;;;;;10.57;6.95;;;;;;;30.77;37.06;94769.22;5127830;27;20019;-72
2023/08/26 08:38:26;;;;;;;9.57;6.95;;;;;;;30.48;37.24;94740.00;5120723;27;20113;-72
2023/08/26 08:40:51;;;;;;;10.60;7.20;;;;;;;30.57;37.23;94761.78;5137651;27;20019;-72
2023/08/26 08:43:17;;;;;;;8.30;7.10;;;;;;;30.73;37.07;94750.97;5137584;27;20392;-73
2023/08/26 08:45:42;;;;;;;7.43;6.63;;;;;;;30.97;36.02;94764.03;5140315;27;20083;-73
2023/08/26 08:48:09;;;;;;;8.13;6.88;;;;;;;30.80;36.91;94758.81;5136655;27;20019;-71
2023/08/26 08:50:34;;;;;;;8.60;6.75;;;;;;;30.76;36.33;94762.22;5106140;28;20417;-72
2023/08/26 08:53:00;;;;;;;9.65;6.90;;;;;;;31.04;35.86;94756.59;5110277;28;20028;-72
2023/08/26 08:55:25;;;;;;;7.43;6.72;;;;;;;31.09;36.28;94772.75;5102189;28;20031;-74
2023/08/26 08:57:52;;;;;;;8.95;7.00;;;;;;;30.95;36.11;94755.44;5096879;28;20035;-72
2023/08/26 09:00:18;;;;;;;8.10;7.10;;;;;;;30.86;36.13;94749.75;5091774;28;20193;-72
2023/08/26 09:02:44;;;;;;;6.80;6.10;;;;;;;30.78;36.02;94754.72;5113620;27;20035;-73
2023/08/26 09:05:09;;;;;;;7.07;6.38;;;;;;;30.81;36.22;94741.66;5112972;27;20022;-72
2023/08/26 09:07:35;;;;;;;7.95;6.45;;;;;;;30.94;35.74;94737.75;5116130;27;20027;-72
2023/08/26 09:10:02;;;;;;;7.70;6.47;;;;;;;30.89;35.54;94751.09;5148822;27;20030;-72
2023/08/26 09:12:29;;;;;;;9.63;8.18;;;;;;;31.09;35.04;94743.25;5129854;27;20041;-72
2023/08/26 09:14:54;;;;;;;6.85;6.22;;;;;;;31.15;34.95;94746.78;5112971;28;20468;-71
2023/08/26 09:17:20;;;;;;;8.40;6.50;;;;;;;31.14;34.79;94747.81;5132947;27;20031;-72
2023/08/26 09:20:02;;;;;;;7.65;6.50;;;;;;;31.19;34.78;94742.50;5129131;28;20102;-72
2023/08/26 09:22:28;;;;;;;7.38;6.50;;;;;;;31.32;34.74;94728.63;5133349;27;20559;-73
2023/08/26 09:24:57;;;;;;;8.70;6.60;;;;;;;31.59;34.38;94733.94;5108043;28;20063;-72
2023/08/26 09:27:23;;;;;;;6.97;6.27;;;;;;;31.47;33.89;94719.09;5111994;28;20131;-72
2023/08/26 09:29:48;;;;;;;8.55;6.57;;;;;;;31.69;33.76;94735.84;5111821;28;20114;-71
2023/08/26 09:32:14;;;;;;;8.50;6.60;;;;;;;31.47;33.17;94735.19;5131327;27;20095;-75
2023/08/26 09:34:39;;;;;;;7.85;5.90;;;;;;;31.85;32.91;94733.25;5132129;27;20026;-72
2023/08/26 09:37:07;;;;;;;7.13;6.43;;;;;;;31.65;32.26;94737.44;5111582;27;20027;-72
2023/08/26 09:39:32;;;;;;;8.20;6.63;;;;;;;31.77;32.52;94729.19;5133769;27;20105;-72
2023/08/26 09:41:59;;;;;;;7.45;6.32;;;;;;;31.86;32.13;94718.75;5129568;27;20481;-72
2023/08/26 09:44:24;;;;;;;7.82;6.97;;;;;;;31.88;32.50;94722.78;5109312;28;20388;-72
2023/08/26 09:46:50;;;;;;;7.57;6.65;;;;;;;31.73;31.73;94714.66;5101507;28;20039;-72
2023/08/26 09:49:17;;;;;;;7.40;6.60;;;;;;;31.87;32.22;94713.09;5150146;27;20034;-72
2023/08/26 09:51:49;;;;;;;8.82;6.88;;;;;;;31.92;32.63;94710.47;5134184;27;20098;-72
2023/08/26 09:54:15;;;;;;;7.47;6.72;;;;;;;31.88;32.47;94709.34;5129818;27;20515;-73
2023/08/26 09:56:41;;;;;;;10.45;6.47;;;;;;;31.75;32.78;94709.81;5129744;28;20422;-73
2023/08/26 09:59:06;;;;;;;7.18;6.22;;;;;;;31.93;31.89;94705.88;5133092;27;20023;-72
2023/08/26 10:01:32;;;;;;;9.18;7.03;;;;;;;32.07;32.20;94704.34;5107725;28;20093;-71
2023/08/26 10:04:20;;;;;;;6.72;6.03;;;;;;;31.96;30.88;94681.22;5124758;27;20015;-72
2023/08/26 10:06:59;;;;;;;7.90;6.55;;;;;;;32.12;31.10;94700.84;5100168;27;20458;-72
2023/08/26 10:09:43;;;;;;;7.80;6.70;;;;;;;31.88;31.17;94698.59;5125874;27;20019;-72
2023/08/26 10:12:33;;;;;;;7.80;6.18;;;;;;;31.87;31.23;94693.50;5115804;27;20035;-72
2023/08/26 10:15:00;;;;;;;8.35;6.38;;;;;;;31.68;31.64;94671.66;5133031;27;20058;-72
2023/08/26 10:17:26;;;;;;;7.60;6.70;;;;;;;31.64;31.99;94681.31;5119379;27;20030;-71
2023/08/26 10:19:51;;;;;;;7.22;6.63;;;;;;;31.73;30.73;94685.13;5150637;27;20385;-72
2023/08/26 10:22:17;;;;;;;8.10;6.82;;;;;;;31.66;31.54;94689.94;5132575;27;20416;-72
2023/08/26 10:24:44;;;;;;;7.70;6.68;;;;;;;31.60;32.10;94671.13;5138005;27;20068;-72
2023/08/26 10:27:09;;;;;;;9.73;6.53;;;;;;;31.78;31.01;94660.97;5115261;27;20078;-72
2023/08/26 10:29:35;;;;;;;9.45;6.80;;;;;;;31.82;31.33;94679.00;5136931;27;20487;-72
2023/08/26 10:32:18;;;;;;;8.50;6.88;;;;;;;32.05;30.91;94677.75;5132548;27;20054;-72
2023/08/26 10:34:59;;;;;;;7.78;6.45;;;;;;;31.77;30.52;94681.66;5132931;27;20446;-72
2023/08/26 10:37:28;;;;;;;7.05;6.35;;;;;;;31.85;30.75;94669.59;5114931;27;20497;-72
2023/08/26 10:39:54;;;;;;;7.05;6.45;;;;;;;32.07;30.30;94671.28;5132479;27;20031;-72
2023/08/26 10:42:20;;;;;;;8.80;7.03;;;;;;;32.07;30.48;94673.97;5115217;27;20071;-73
2023/08/26 10:44:47;;;;;;;9.75;7.20;;;;;;;32.00;29.87;94675.03;5131530;27;20027;-72
2023/08/26 10:47:32;;;;;;;7.40;6.15;;;;;;;31.90;30.32;94680.38;5099941;27;20503;-72
2023/08/26 10:50:12;;;;;;;8.38;6.38;;;;;;;31.99;30.88;94678.00;5100992;27;20467;-72
2023/08/26 10:52:37;;;;;;;7.50;6.70;;;;;;;32.08;30.32;94673.72;5139125;27;20039;-72
2023/08/26 10:55:11;;;;;;;9.82;6.38;;;;;;;32.06;29.89;94670.47;5132871;27;20035;-71
2023/08/26 10:57:37;;;;;;;9.13;6.82;;;;;;;32.07;29.71;94665.91;5120108;27;20038;-72
2023/08/26 11:00:08;;;;;;;7.78;6.80;;;;;;;32.08;29.82;94671.03;5142360;27;20023;-72
2023/08/26 11:02:33;;;;;;;7.47;6.70;;;;;;;32.01;29.89;94657.88;5136586;27;20031;-72
2023/08/26 11:04:59;;;;;;;7.57;6.88;;;;;;;32.00;30.21;94652.75;5134736;27;20046;-72
2023/08/26 11:07:24;;;;;;;7.35;6.60;;;;;;;32.00;30.66;94637.44;5133943;27;20038;-72
2023/08/26 11:09:50;;;;;;;7.07;6.38;;;;;;;32.23;30.31;94659.50;5118900;27;20019;-72
2023/08/26 11:12:41;;;;;;;8.43;7.00;;;;;;;32.53;30.17;94655.28;5125848;27;20096;-72
2023/08/26 11:15:07;;;;;;;7.60;6.13;;;;;;;32.61;30.45;94652.06;5117314;27;20432;-71
2023/08/26 11:17:33;;;;;;;8.98;6.97;;;;;;;32.51;27.99;94636.72;5126151;27;20100;-72
2023/08/26 11:19:58;;;;;;;7.50;6.55;;;;;;;32.43;28.24;94646.09;5126879;27;20044;-71
2023/08/26 11:22:27;;;;;;;7.43;6.60;;;;;;;32.24;29.28;94631.59;5098099;27;20492;-72
2023/08/26 11:24:52;;;;;;;7.90;6.60;;;;;;;32.18;28.72;94628.09;5114230;27;20038;-72
2023/08/26 11:27:18;;;;;;;10.23;7.13;;;;;;;32.29;29.06;94639.66;5133779;27;20051;-72
2023/08/26 11:29:43;;;;;;;6.65;5.90;;;;;;;32.24;29.77;94631.59;5124011;27;20123;-72
2023/08/26 11:32:09;;;;;;;6.85;5.97;;;;;;;32.18;29.12;94629.94;5129784;27;20535;-71
2023/08/26 11:34:34;;;;;;;8.07;6.40;;;;;;;32.18;29.81;94638.00;5138614;27;20023;-72
2023/08/26 11:36:59;;;;;;;7.53;6.00;;;;;;;32.45;28.52;94619.75;5132385;27;20027;-73
2023/08/26 11:39:30;;;;;;;6.63;5.93;;;;;;;32.49;28.46;94626.25;5122191;27;20062;-72
2023/08/26 11:41:55;;;;;;;8.05;6.40;;;;;;;32.58;29.04;94631.88;5125573;27;20035;-71